Latest Weather Observations for Low Head

IDT60801

Issued at 3:35 pm EST Friday 19 September 2014 (issued every 30 minutes, with the page automatically refreshed every 10 minutes)

About weather observations | Map of weather stations | Latest weather observations for TAS | Other Formats
Station Details ID: 091293 Name: LOW HEAD Lat: -41.05 Lon: 146.79 Height: 3.0 m
Data from the previous 72 hours. | See also: Recent months at Low Head
Date/Time
EST
Temp
°C
App
Temp
°C
Dew
Point
Rel
Hum
%
Delta-T
°C
Wind Press
QNH
hPa
Press
MSL
hPa
Rain
since 9 am
mm
Dir
 
Spd
km/h
Gust
km/h
Spd
kts
Gust
kts
19/03:30pm 13.4 7.3 8.4 72 2.5 WNW 30 37 16 20 1017.2 - 0.0
19/03:00pm 13.5 6.9 8.5 72 2.5 W 33 37 18 20 1017.0 1017.0 0.0
19/02:30pm 13.5 6.7 7.6 67 2.9 W 33 39 18 21 1016.8 - 0.0
19/02:00pm 13.4 6.5 7.2 66 3.0 W 33 37 18 20 1016.9 - 0.0
19/01:30pm 13.3 6.4 7.3 67 2.9 W 33 39 18 21 1017.1 - 0.0
19/01:00pm 13.3 6.6 8.0 70 2.6 W 33 39 18 21 1017.2 - 0.0
19/12:30pm 13.6 6.3 7.2 65 3.1 W 35 41 19 22 1017.2 - 0.0
19/12:00pm 13.7 7.5 7.8 67 2.9 W 30 35 16 19 1017.7 1017.7 0.0
19/11:30am 13.6 5.6 5.5 58 3.8 W 37 43 20 23 1017.4 - 0.0
19/11:00am 13.2 5.1 7.2 67 2.9 W 39 43 21 23 1017.4 - 0.0
19/10:30am 13.0 6.4 7.7 70 2.6 WNW 32 35 17 19 1017.8 - 0.0
19/10:00am 12.8 5.6 7.7 71 2.5 W 35 41 19 22 1017.9 - 0.0
19/09:30am 12.4 5.5 7.2 70 2.5 W 33 37 18 20 1018.1 - 0.0
19/09:00am 12.3 5.3 6.9 69 2.6 W 33 39 18 21 1017.9 1018.0 0.0
19/08:30am 11.9 3.7 6.4 69 2.6 WSW 39 48 21 26 1017.7 - 0.0
19/08:00am 12.1 3.0 6.6 69 2.6 WSW 44 50 24 27 1017.3 - 0.0
19/07:30am 11.8 2.0 7.0 72 2.3 WSW 48 57 26 31 1016.8 - 0.0
19/07:00am 11.6 1.9 6.0 68 2.6 W 46 54 25 29 1017.0 - 0.0
19/06:30am 11.8 1.9 6.5 70 2.5 W 48 54 26 29 1016.8 - 0.0
19/06:00am 11.6 2.4 6.5 71 2.4 W 44 50 24 27 1016.5 1016.5 0.0
19/05:30am 11.5 2.1 7.1 74 2.1 W 46 56 25 30 1016.5 - 0.0
19/05:00am 11.1 1.4 7.3 77 1.8 W 48 56 26 30 1016.4 - 0.0
19/04:30am 11.2 1.0 7.0 75 2.0 W 50 57 27 31 1016.3 - 0.0
19/04:00am 11.2 1.4 7.0 75 2.0 W 48 57 26 31 1016.2 - 0.0
19/03:30am 11.2 1.4 7.2 76 1.9 W 48 57 26 31 1016.3 - 0.0
19/03:00am 11.3 1.1 6.9 74 2.1 W 50 57 27 31 1016.6 1016.6 0.0
19/02:30am 11.1 1.2 6.6 74 2.1 W 48 56 26 30 1016.4 - 0.0
19/02:00am 11.3 1.4 6.6 73 2.2 W 48 56 26 30 1016.7 - 0.0
19/01:30am 10.9 2.1 7.1 77 1.8 W 43 50 23 27 1017.4 - 0.0
19/01:00am 11.1 1.5 6.2 72 2.3 W 46 52 25 28 1017.2 - 0.0
19/12:30am 11.3 1.7 6.2 71 2.4 W 46 52 25 28 1017.5 - 0.0
19/12:00am 11.5 1.8 5.7 67 2.7 W 46 52 25 28 1017.5 1017.5 0.0
 
Date/Time
EST
Temp
°C
App
Temp
°C
Dew
Point
Rel
Hum
%
Delta-T
°C
Wind Press
QNH
hPa
Press
MSL
hPa
Rain
since 9 am
mm
Dir
 
Spd
km/h
Gust
km/h
Spd
kts
Gust
kts
18/11:30pm 11.4 1.2 5.0 65 2.9 W 48 56 26 30 1017.3 - 0.0
18/11:00pm 11.4 1.0 6.0 69 2.5 W 50 59 27 32 1017.3 - 0.0
18/10:30pm 11.2 2.5 5.8 69 2.5 W 41 46 22 25 1017.8 - 0.0
18/10:00pm 11.1 1.0 5.7 69 2.5 W 48 56 26 30 1017.4 - 0.0
18/09:30pm 11.2 2.4 5.5 68 2.6 W 41 48 22 26 1017.9 - 0.0
18/09:00pm 11.1 4.3 4.9 65 2.8 WSW 30 39 16 21 1018.2 1018.2 0.0
18/08:30pm 11.4 2.4 4.8 64 3.0 W 41 50 22 27 1017.6 - 0.0
18/08:00pm 11.6 2.2 4.5 61 3.2 W 43 50 23 27 1017.8 - 0.0
18/07:30pm 11.8 2.1 4.0 59 3.5 W 44 54 24 29 1017.4 - 0.0
18/07:00pm 12.0 2.6 4.2 59 3.5 W 43 48 23 26 1017.1 - 0.0
18/06:30pm 12.3 1.9 2.1 49 4.4 WSW 46 57 25 31 1016.9 - 0.0
18/06:00pm 12.6 4.1 3.1 52 4.2 W 37 44 20 24 1016.7 1016.7 0.0
18/05:30pm 12.9 4.2 1.7 46 4.8 WSW 37 48 20 26 1016.8 - 0.0
18/05:00pm 12.9 3.9 2.6 49 4.5 W 39 50 21 27 1016.4 - 0.0
18/04:30pm 13.1 3.4 2.9 50 4.5 WSW 43 50 23 27 1016.1 - 0.0
18/04:00pm 13.0 2.5 3.9 54 4.1 W 48 56 26 30 1015.6 - 0.0
18/03:30pm 13.9 4.8 4.0 51 4.5 W 41 48 22 26 1015.7 - 0.0
18/03:00pm 14.2 4.8 2.4 45 5.2 WSW 41 48 22 26 1015.6 1015.6 0.0
18/02:44pm 14.1 5.4 2.0 44 5.3 WSW 37 44 20 24 1015.5 - 0.0
18/02:30pm 13.7 6.4 4.3 53 4.3 W 32 39 17 21 1015.7 - 0.0
18/02:00pm 14.2 7.8 3.3 48 4.9 W 26 32 14 17 1015.9 - 0.0
18/01:30pm 13.6 5.9 2.4 46 4.9 WSW 32 37 17 20 1016.0 - 0.0
18/01:00pm 13.3 6.2 3.8 52 4.3 W 30 35 16 19 1015.9 - 0.0
18/12:30pm 13.1 5.3 2.9 50 4.5 W 33 41 18 22 1016.1 - 0.0
18/12:00pm 13.9 6.7 3.2 48 4.8 WNW 30 35 16 19 1016.3 1016.3 0.0
18/11:30am 12.9 5.1 2.0 47 4.7 W 32 35 17 19 1016.5 - 0.0
18/11:00am 12.4 5.1 2.2 50 4.4 W 30 37 16 20 1016.8 - 0.0
18/10:30am 12.1 6.3 2.4 51 4.2 W 22 28 12 15 1016.9 - 0.0
18/10:00am 11.5 5.3 2.4 53 3.9 WSW 24 32 13 17 1016.7 - 0.0
18/09:30am 10.7 4.5 1.9 54 3.7 WSW 24 30 13 16 1016.7 - 0.0
18/09:00am 10.0 3.8 2.2 58 3.3 WSW 24 28 13 15 1016.4 1016.4 0.2
18/08:30am 9.8 3.9 1.9 58 3.3 WSW 22 26 12 14 1016.1 - 0.2
18/08:00am 10.0 3.9 2.8 61 3.1 WSW 24 28 13 15 1015.9 - 0.2
18/07:30am 9.8 3.3 2.8 61 3.0 W 26 30 14 16 1015.7 - 0.2
18/07:00am 8.9 4.2 0.7 56 3.3 WSW 15 20 8 11 1015.2 - 0.2
18/06:30am 8.8 3.2 0.0 54 3.5 WSW 19 24 10 13 1015.0 - 0.2
18/06:00am 8.8 3.9 -0.4 52 3.6 W 15 17 8 9 1014.5 1014.5 0.2
18/05:30am 8.9 3.7 0.4 55 3.4 WSW 17 20 9 11 1014.2 - 0.2
18/05:00am 9.4 2.6 0.5 54 3.6 WSW 26 32 14 17 1013.6 - 0.2
18/04:30am 9.2 3.1 0.5 54 3.5 WSW 22 26 12 14 1013.2 - 0.2
18/04:00am 9.3 1.2 0.7 55 3.5 WSW 33 41 18 22 1012.7 - 0.2
18/03:30am 9.1 1.0 1.3 58 3.2 W 33 39 18 21 1012.3 - 0.2
18/03:00am 9.0 1.1 1.2 58 3.2 WSW 32 39 17 21 1011.8 1011.8 0.2
18/02:30am 8.9 1.0 1.0 57 3.2 WSW 32 37 17 20 1011.7 - 0.2
18/02:00am 9.0 1.5 1.5 59 3.1 WSW 30 32 16 17 1011.7 - 0.2
18/01:30am 8.5 1.8 1.7 62 2.8 WSW 26 33 14 18 1011.6 - 0.2
18/01:00am 7.9 2.2 0.6 60 2.9 WSW 20 26 11 14 1011.6 - 0.2
18/12:30am 8.2 2.6 0.1 56 3.2 W 19 24 10 13 1011.9 - 0.2
18/12:00am 7.6 2.5 0.6 61 2.8 WSW 17 20 9 11 1011.5 1011.6 0.2
 
Date/Time
EST
Temp
°C
App
Temp
°C
Dew
Point
Rel
Hum
%
Delta-T
°C
Wind Press
QNH
hPa
Press
MSL
hPa
Rain
since 9 am
mm
Dir
 
Spd
km/h
Gust
km/h
Spd
kts
Gust
kts
17/11:30pm 7.7 1.8 1.6 65 2.5 WSW 22 28 12 15 1011.4 - 0.2
17/11:00pm 7.7 1.0 1.6 65 2.5 WSW 26 32 14 17 1010.9 - 0.2
17/10:30pm 7.5 1.3 2.2 69 2.2 SW 24 30 13 16 1011.3 - 0.2
17/10:00pm 7.4 2.2 2.3 70 2.1 SSW 19 30 10 16 1010.9 - 0.2
17/09:30pm 8.1 0.8 2.6 68 2.3 W 30 39 16 21 1010.3 - 0.2
17/09:00pm 8.6 0.0 2.7 66 2.5 W 37 43 20 23 1010.3 1010.3 0.2
17/08:30pm 8.3 2.2 2.6 67 2.4 WSW 24 32 13 17 1010.3 - 0.2
17/08:00pm 8.7 0.0 1.7 61 2.9 W 37 44 20 24 1010.1 - 0.2
17/07:30pm 9.0 -0.6 1.2 58 3.2 W 41 48 22 26 1009.9 - 0.2
17/07:00pm 9.0 0.2 1.5 59 3.1 W 37 43 20 23 1009.2 - 0.2
17/06:30pm 9.4 -0.7 1.4 57 3.3 WSW 44 54 24 29 1008.5 - 0.2
17/06:00pm 9.5 -1.0 1.6 58 3.3 WSW 46 56 25 30 1008.1 1008.1 0.2
17/05:30pm 9.9 0.0 2.7 61 3.1 WSW 44 52 24 28 1007.4 - 0.2
17/05:00pm 10.3 -0.2 1.5 54 3.7 WSW 46 59 25 32 1006.4 - 0.2
17/04:30pm 10.8 0.8 0.9 50 4.1 WSW 43 54 23 29 1005.8 - 0.2
17/04:20pm 10.9 2.9 1.4 52 4.0 WSW 33 52 18 28 1005.5 - 0.2
17/04:00pm 10.5 1.4 2.0 55 3.6 WSW 39 50 21 27 1005.4 - 0.2
17/03:30pm 11.0 2.7 2.1 54 3.8 WSW 35 44 19 24 1005.0 - 0.2
17/03:00pm 10.7 -0.5 2.0 55 3.7 WSW 50 61 27 33 1004.4 1004.4 0.2
17/02:30pm 10.7 -1.0 3.4 60 3.2 W 54 63 29 34 1004.4 - 0.2
17/02:00pm 10.5 0.1 4.0 64 2.9 W 48 57 26 31 1004.1 - 0.2
17/01:30pm 11.3 0.6 4.7 64 3.0 W 50 59 27 32 1004.0 - 0.2
17/01:00pm 11.3 0.9 2.2 53 3.9 W 46 56 25 30 1004.1 - 0.2
17/12:48pm 11.1 2.5 2.6 56 3.7 W 37 50 20 27 1004.0 - 0.2
17/12:30pm 11.1 1.3 3.1 58 3.5 WSW 44 57 24 31 1004.2 - 0.2
17/12:20pm 11.2 0.7 3.8 60 3.3 WSW 48 61 26 33 1004.0 - 0.2
17/12:00pm 11.0 0.9 3.8 61 3.2 W 46 57 25 31 1004.5 1004.5 0.2
17/11:30am 11.3 2.9 3.6 59 3.4 W 37 43 20 23 1004.6 - 0.2
17/11:00am 10.9 2.4 5.0 67 2.7 W 39 46 21 25 1005.0 - 0.0
17/10:30am 10.8 2.6 6.6 75 2.0 W 39 48 21 26 1005.1 - 0.0
17/10:00am 10.9 2.7 6.7 75 2.0 WNW 39 44 21 24 1005.3 - 0.0
17/09:30am 11.4 2.9 6.8 73 2.2 W 41 48 22 26 1005.6 - 0.0
17/09:00am 11.6 4.3 7.2 74 2.1 W 35 43 19 23 1005.8 1005.8 14.2
17/08:30am 11.2 4.0 7.5 78 1.8 W 35 41 19 22 1006.1 - 14.2
17/08:00am 10.9 4.2 7.4 79 1.7 W 32 39 17 21 1006.0 - 14.2
17/07:30am 11.2 3.7 7.9 80 1.6 W 37 41 20 22 1006.0 - 14.2
17/07:00am 10.6 5.3 8.4 86 1.1 W 26 32 14 17 1006.2 - 14.2
17/06:30am 10.3 6.3 8.3 87 1.0 W 19 22 10 12 1006.4 - 14.2
17/06:00am 9.9 6.1 7.6 85 1.1 W 17 20 9 11 1006.7 1006.7 14.2
17/05:30am 9.8 5.6 7.5 85 1.1 W 19 20 10 11 1006.9 - 14.2
17/05:00am 9.7 6.3 7.6 87 1.0 W 15 20 8 11 1007.1 - 14.2
17/04:30am 9.4 6.6 7.1 85 1.1 W 11 15 6 8 1007.2 - 14.2
17/04:00am 9.3 5.0 7.2 87 1.0 W 19 20 10 11 1007.4 - 14.2
17/03:30am 9.3 5.0 7.2 87 1.0 W 19 24 10 13 1007.6 - 14.2
17/03:00am 9.5 4.7 7.2 85 1.1 W 22 28 12 15 1007.8 1007.8 14.2
17/02:30am 9.7 6.0 8.0 89 0.8 WSW 17 22 9 12 1008.0 - 14.2
17/02:00am 10.0 5.8 8.1 88 0.9 W 20 24 11 13 1008.2 - 14.2
17/01:30am 9.8 5.8 8.1 89 0.8 W 19 20 10 11 1008.5 - 14.2
17/01:00am 8.8 7.8 7.3 90 0.7 SW 2 9 1 5 1008.7 - 14.2
17/12:30am 8.2 6.7 6.7 90 0.7 S 4 9 2 5 1008.8 - 14.2
17/12:00am 8.9 8.2 6.8 87 1.0 CALM 0 0 0 0 1008.8 1008.8 14.2
 
Date/Time
EST
Temp
°C
App
Temp
°C
Dew
Point
Rel
Hum
%
Delta-T
°C
Wind Press
QNH
hPa
Press
MSL
hPa
Rain
since 9 am
mm
Dir
 
Spd
km/h
Gust
km/h
Spd
kts
Gust
kts
16/11:30pm 9.2 6.8 6.9 85 1.1 S 9 11 5 6 1009.1 - 14.2
16/11:00pm 9.6 6.9 7.3 85 1.1 WSW 11 15 6 8 1009.4 - 14.2
16/10:30pm 9.6 5.8 7.7 88 0.9 W 17 20 9 11 1009.5 - 14.2
16/10:00pm 9.8 6.0 7.7 87 1.0 W 17 20 9 11 1009.7 - 14.2
16/09:30pm 10.0 6.7 8.1 88 0.9 W 15 19 8 10 1009.7 - 14.2
16/09:00pm 9.5 6.4 7.2 85 1.1 SW 13 19 7 10 1009.7 1009.7 14.2
16/08:30pm 9.4 5.9 7.3 87 1.0 SSW 15 19 8 10 1009.7 - 14.2
16/08:00pm 9.4 6.1 7.9 90 0.7 SSW 15 17 8 9 1009.8 - 14.2
16/07:30pm 9.1 6.8 7.6 90 0.7 SSE 9 13 5 7 1009.7 - 14.2
16/07:00pm 9.1 5.3 7.6 90 0.7 SSE 17 20 9 11 1009.6 - 14.2
16/06:30pm 9.2 5.0 7.5 89 0.8 SSE 19 24 10 13 1009.5 - 14.2
16/06:00pm 9.4 4.4 7.9 90 0.7 S 24 32 13 17 1009.5 1009.5 14.2
16/05:30pm 9.4 4.8 8.2 92 0.6 SSE 22 26 12 14 1009.4 - 14.2
16/05:00pm 9.4 4.9 8.4 93 0.5 SSE 22 28 12 15 1009.5 - 14.2
16/04:30pm 9.2 5.9 8.2 93 0.5 SE 15 20 8 11 1009.3 - 14.0
16/04:00pm 9.6 6.4 8.4 92 0.6 SSE 15 20 8 11 1009.7 - 13.0

Other Formats:

Comma delimited format used in spreadsheet applications
http://www.bom.gov.au/fwo/IDT60801/IDT60801.95964.axf

JavaScript Object Notation format (JSON) in row-major order
http://www.bom.gov.au/fwo/IDT60801/IDT60801.95964.json